Time;durP1;ratioP1;P1;durP2;ratioP2;P2;SDS_P1;SDS_P2;PMS_P1;PMS_P2;Temp;Humidity;BMP_temperature;BMP_pressure;BME280_temperature;BME280_humidity;BME280_pressure;Samples;Min_cycle;Max_cycle;Signal;HPM_P1;HPM_P2
2023/07/23 00:00:50;;;;;;;19.40;17.50;;;;;;;-128.00;-1.00;-1.00;105828;1253;1004541;-72
2023/07/23 00:03:36;;;;;;;19.30;16.90;;;;;;;-128.00;-1.00;-1.00;105674;1253;1048829;-71
2023/07/23 00:06:04;;;;;;;18.70;16.90;;;;;;;-128.00;-1.00;-1.00;105584;1252;1003544;-72
2023/07/23 00:08:31;;;;;;;21.40;19.30;;;;;;;-128.00;-1.00;-1.00;105819;1253;1003477;-72
2023/07/23 00:10:58;;;;;;;18.60;16.80;;;;;;;-128.00;-1.00;-1.00;105764;1253;1003568;-72
2023/07/23 00:13:25;;;;;;;17.50;15.80;;;;;;;-128.00;-1.00;-1.00;105773;1252;1004319;-72
2023/07/23 00:15:51;;;;;;;18.20;16.50;;;;;;;-128.00;-1.00;-1.00;105789;1252;1003838;-71
2023/07/23 00:18:18;;;;;;;19.10;17.30;;;;;;;-128.00;-1.00;-1.00;105785;1252;1004208;-71
2023/07/23 00:20:45;;;;;;;21.00;18.80;;;;;;;-128.00;-1.00;-1.00;105801;1253;1004327;-72
2023/07/23 00:23:12;;;;;;;21.00;18.90;;;;;;;-128.00;-1.00;-1.00;105631;1254;1004685;-72
2023/07/23 00:25:39;;;;;;;25.00;21.10;;;;;;;-128.00;-1.00;-1.00;105777;1252;1004273;-72
2023/07/23 00:28:06;;;;;;;23.50;21.20;;;;;;;-128.00;-1.00;-1.00;105642;1252;1004391;-72
2023/07/23 00:30:33;;;;;;;22.30;20.00;;;;;;;-128.00;-1.00;-1.00;105495;1252;1004647;-72
2023/07/23 00:32:59;;;;;;;23.30;20.90;;;;;;;-128.00;-1.00;-1.00;105786;1252;1004763;-72
2023/07/23 00:35:26;;;;;;;23.60;21.20;;;;;;;-128.00;-1.00;-1.00;105837;1253;1004120;-72
2023/07/23 00:37:52;;;;;;;23.60;21.20;;;;;;;-128.00;-1.00;-1.00;105645;1252;1004539;-71
2023/07/23 00:40:19;;;;;;;22.90;20.50;;;;;;;-128.00;-1.00;-1.00;105780;1253;1005701;-72
2023/07/23 00:42:46;;;;;;;23.50;21.10;;;;;;;-128.00;-1.00;-1.00;105806;1252;1006252;-71
2023/07/23 00:45:12;;;;;;;23.60;21.20;;;;;;;-128.00;-1.00;-1.00;105819;1253;1003755;-71
2023/07/23 00:47:39;;;;;;;23.40;20.60;;;;;;;-128.00;-1.00;-1.00;105806;1252;1003977;-71
2023/07/23 00:50:06;;;;;;;21.90;19.80;;;;;;;-128.00;-1.00;-1.00;105725;1252;1004213;-73
2023/07/23 00:52:32;;;;;;;21.50;19.10;;;;;;;-128.00;-1.00;-1.00;105794;1253;1004047;-71
2023/07/23 00:54:59;;;;;;;20.90;18.80;;;;;;;-128.00;-1.00;-1.00;105896;1253;1004270;-71
2023/07/23 00:57:26;;;;;;;22.10;20.10;;;;;;;-128.00;-1.00;-1.00;105798;1253;1003415;-71
2023/07/23 00:59:56;;;;;;;22.50;20.50;;;;;;;-128.00;-1.00;-1.00;105733;1253;1004558;-71
2023/07/23 01:02:26;;;;;;;22.30;20.10;;;;;;;-128.00;-1.00;-1.00;105758;1252;1059563;-71
2023/07/23 01:04:54;;;;;;;22.30;20.20;;;;;;;-128.00;-1.00;-1.00;105741;1253;1046195;-71
2023/07/23 01:07:23;;;;;;;19.80;17.90;;;;;;;-128.00;-1.00;-1.00;105749;1253;1046497;-71
2023/07/23 01:09:51;;;;;;;21.50;19.20;;;;;;;-128.00;-1.00;-1.00;105774;1252;1062342;-71
2023/07/23 01:12:18;;;;;;;20.90;18.70;;;;;;;-128.00;-1.00;-1.00;105673;1253;1004457;-71
2023/07/23 01:14:45;;;;;;;20.30;18.10;;;;;;;-128.00;-1.00;-1.00;105598;1253;1003923;-71
2023/07/23 01:17:14;;;;;;;20.20;18.30;;;;;;;-128.00;-1.00;-1.00;105805;1252;1003772;-71
2023/07/23 01:19:41;;;;;;;20.80;18.70;;;;;;;-128.00;-1.00;-1.00;105804;1252;1047889;-71
2023/07/23 01:22:07;;;;;;;19.70;17.60;;;;;;;-128.00;-1.00;-1.00;105830;1253;1004932;-71
2023/07/23 01:24:35;;;;;;;19.80;18.10;;;;;;;-128.00;-1.00;-1.00;105787;1253;1003957;-71
2023/07/23 01:27:02;;;;;;;19.30;17.40;;;;;;;-128.00;-1.00;-1.00;105798;1252;1005060;-71
2023/07/23 01:29:29;;;;;;;20.40;18.30;;;;;;;-128.00;-1.00;-1.00;105598;1253;1004432;-71
2023/07/23 01:31:55;;;;;;;18.80;16.90;;;;;;;-128.00;-1.00;-1.00;105835;1252;1004499;-71
2023/07/23 01:34:22;;;;;;;19.40;17.40;;;;;;;-128.00;-1.00;-1.00;105822;1253;1004448;-71
2023/07/23 01:36:49;;;;;;;19.80;18.00;;;;;;;-128.00;-1.00;-1.00;105765;1253;1003271;-71
2023/07/23 01:39:16;;;;;;;21.10;18.90;;;;;;;-128.00;-1.00;-1.00;105769;1252;1004850;-71
2023/07/23 01:41:42;;;;;;;20.20;18.30;;;;;;;-128.00;-1.00;-1.00;105801;1252;1004047;-71
2023/07/23 01:44:09;;;;;;;19.90;17.90;;;;;;;-128.00;-1.00;-1.00;105797;1252;1003812;-71
2023/07/23 01:46:35;;;;;;;21.60;19.50;;;;;;;-128.00;-1.00;-1.00;105791;1253;1004447;-71
2023/07/23 01:49:02;;;;;;;21.10;19.10;;;;;;;-128.00;-1.00;-1.00;105505;1252;1004117;-71
2023/07/23 01:51:28;;;;;;;19.70;17.90;;;;;;;-128.00;-1.00;-1.00;105777;1252;1003903;-71
2023/07/23 01:53:55;;;;;;;21.60;19.10;;;;;;;-128.00;-1.00;-1.00;105614;1253;1004612;-71
2023/07/23 01:56:21;;;;;;;20.20;17.60;;;;;;;-128.00;-1.00;-1.00;105815;1252;1005013;-71
2023/07/23 01:58:48;;;;;;;18.70;16.80;;;;;;;-128.00;-1.00;-1.00;105651;1252;1003689;-71
2023/07/23 02:01:14;;;;;;;20.40;18.30;;;;;;;-128.00;-1.00;-1.00;105786;1253;1003622;-71
2023/07/23 02:03:41;;;;;;;18.40;16.70;;;;;;;-128.00;-1.00;-1.00;105600;1252;1003646;-71
2023/07/23 02:06:08;;;;;;;19.90;17.90;;;;;;;-128.00;-1.00;-1.00;105815;1252;1004475;-71
2023/07/23 02:08:34;;;;;;;18.10;15.60;;;;;;;-128.00;-1.00;-1.00;105842;1252;1003926;-71
2023/07/23 02:11:01;;;;;;;18.20;16.40;;;;;;;-128.00;-1.00;-1.00;105800;1253;1004223;-71
2023/07/23 02:13:29;;;;;;;18.40;16.60;;;;;;;-128.00;-1.00;-1.00;105774;1253;1003998;-71
2023/07/23 02:15:55;;;;;;;17.50;15.80;;;;;;;-128.00;-1.00;-1.00;105687;1252;1004337;-72
2023/07/23 02:18:23;;;;;;;16.00;14.40;;;;;;;-128.00;-1.00;-1.00;105805;1253;1004339;-72
2023/07/23 02:20:49;;;;;;;18.50;16.60;;;;;;;-128.00;-1.00;-1.00;105850;1253;1004248;-72
2023/07/23 02:23:16;;;;;;;17.20;15.50;;;;;;;-128.00;-1.00;-1.00;105606;1252;1004012;-72
2023/07/23 02:25:43;;;;;;;17.40;15.70;;;;;;;-128.00;-1.00;-1.00;105573;1252;1004463;-72
2023/07/23 02:28:10;;;;;;;16.90;15.30;;;;;;;-128.00;-1.00;-1.00;105788;1252;1004656;-72
2023/07/23 02:30:37;;;;;;;15.60;14.00;;;;;;;-128.00;-1.00;-1.00;105848;1252;1005238;-72
2023/07/23 02:33:04;;;;;;;15.30;13.90;;;;;;;-128.00;-1.00;-1.00;105824;1252;1004572;-72
2023/07/23 02:35:35;;;;;;;17.20;15.50;;;;;;;-128.00;-1.00;-1.00;105619;1253;1004883;-71
2023/07/23 02:38:03;;;;;;;15.90;14.40;;;;;;;-128.00;-1.00;-1.00;105575;1252;1055400;-71
2023/07/23 02:40:33;;;;;;;15.10;13.60;;;;;;;-128.00;-1.00;-1.00;105799;1252;1004470;-71
2023/07/23 02:43:00;;;;;;;15.70;14.00;;;;;;;-128.00;-1.00;-1.00;105757;1252;1047378;-72
2023/07/23 02:45:29;;;;;;;16.90;14.70;;;;;;;-128.00;-1.00;-1.00;105779;1252;1004522;-71
2023/07/23 02:47:55;;;;;;;16.30;14.80;;;;;;;-128.00;-1.00;-1.00;105676;1253;1003903;-71
2023/07/23 02:50:22;;;;;;;17.10;15.40;;;;;;;-128.00;-1.00;-1.00;105809;1252;1004564;-71
2023/07/23 02:52:49;;;;;;;18.40;16.50;;;;;;;-128.00;-1.00;-1.00;105748;1253;1003951;-71
2023/07/23 02:55:15;;;;;;;18.40;16.50;;;;;;;-128.00;-1.00;-1.00;105770;1253;1003202;-71
2023/07/23 02:57:42;;;;;;;18.00;16.20;;;;;;;-128.00;-1.00;-1.00;105570;1252;1003403;-71
2023/07/23 03:00:09;;;;;;;18.20;16.50;;;;;;;-128.00;-1.00;-1.00;105849;1252;1003871;-71
2023/07/23 03:02:36;;;;;;;19.50;17.40;;;;;;;-128.00;-1.00;-1.00;105820;1252;1004540;-71
2023/07/23 03:05:03;;;;;;;19.60;17.70;;;;;;;-128.00;-1.00;-1.00;105761;1253;1005296;-71
2023/07/23 03:07:34;;;;;;;18.90;17.00;;;;;;;-128.00;-1.00;-1.00;105611;1252;1004483;-71
2023/07/23 03:10:00;;;;;;;19.40;17.50;;;;;;;-128.00;-1.00;-1.00;105827;1252;1048091;-71
2023/07/23 03:12:27;;;;;;;18.90;16.90;;;;;;;-128.00;-1.00;-1.00;105789;1252;1003456;-71
2023/07/23 03:14:54;;;;;;;18.20;16.30;;;;;;;-128.00;-1.00;-1.00;105809;1252;1004739;-71
2023/07/23 03:17:20;;;;;;;16.20;14.60;;;;;;;-128.00;-1.00;-1.00;105794;1253;1003733;-71
2023/07/23 03:19:47;;;;;;;17.70;16.20;;;;;;;-128.00;-1.00;-1.00;105805;1252;1004599;-71
2023/07/23 03:22:13;;;;;;;18.60;16.80;;;;;;;-128.00;-1.00;-1.00;105809;1252;1004104;-71
2023/07/23 03:24:40;;;;;;;17.40;15.70;;;;;;;-128.00;-1.00;-1.00;105854;1252;1004868;-71
2023/07/23 03:27:06;;;;;;;18.80;16.90;;;;;;;-128.00;-1.00;-1.00;105849;1253;1003787;-71
2023/07/23 03:29:33;;;;;;;19.00;17.10;;;;;;;-128.00;-1.00;-1.00;105862;1252;1004451;-71
2023/07/23 03:31:59;;;;;;;17.70;15.90;;;;;;;-128.00;-1.00;-1.00;105837;1252;1004290;-71
2023/07/23 03:34:26;;;;;;;17.50;15.70;;;;;;;-128.00;-1.00;-1.00;105608;1252;1005046;-71
2023/07/23 03:36:52;;;;;;;17.50;15.90;;;;;;;-128.00;-1.00;-1.00;105767;1253;1004110;-72
2023/07/23 03:39:19;;;;;;;16.80;15.10;;;;;;;-128.00;-1.00;-1.00;105861;1252;1004410;-71
2023/07/23 03:41:46;;;;;;;15.60;14.10;;;;;;;-128.00;-1.00;-1.00;105822;1252;1003445;-72
2023/07/23 03:44:12;;;;;;;14.50;13.20;;;;;;;-128.00;-1.00;-1.00;105776;1252;1004603;-71
2023/07/23 03:46:44;;;;;;;14.30;12.90;;;;;;;-128.00;-1.00;-1.00;105783;1252;1005112;-72
2023/07/23 03:49:11;;;;;;;15.40;12.60;;;;;;;-128.00;-1.00;-1.00;105755;1253;1060827;-72
2023/07/23 03:51:37;;;;;;;12.90;11.60;;;;;;;-128.00;-1.00;-1.00;105789;1253;1004102;-72
2023/07/23 03:54:04;;;;;;;13.00;11.80;;;;;;;-128.00;-1.00;-1.00;105809;1253;1004563;-72
2023/07/23 03:56:30;;;;;;;12.30;11.10;;;;;;;-128.00;-1.00;-1.00;105814;1252;1004423;-70
2023/07/23 03:58:57;;;;;;;11.30;10.30;;;;;;;-128.00;-1.00;-1.00;105839;1252;1004013;-72
2023/07/23 04:01:23;;;;;;;11.90;10.90;;;;;;;-128.00;-1.00;-1.00;105792;1252;1003929;-72
2023/07/23 04:03:49;;;;;;;11.60;10.40;;;;;;;-128.00;-1.00;-1.00;105827;1252;1004397;-72
2023/07/23 04:06:16;;;;;;;11.00;9.90;;;;;;;-128.00;-1.00;-1.00;105770;1253;1004739;-73
2023/07/23 04:08:42;;;;;;;11.00;10.00;;;;;;;-128.00;-1.00;-1.00;105809;1252;1003504;-73
2023/07/23 04:11:10;;;;;;;10.90;9.90;;;;;;;-128.00;-1.00;-1.00;105846;1253;1004316;-73
2023/07/23 04:13:37;;;;;;;10.10;9.10;;;;;;;-128.00;-1.00;-1.00;105628;1252;1004861;-73
2023/07/23 04:16:11;;;;;;;10.50;9.50;;;;;;;-128.00;-1.00;-1.00;105758;1253;1003818;-73
2023/07/23 04:18:48;;;;;;;10.60;9.60;;;;;;;-128.00;-1.00;-1.00;105790;1252;1058914;-71
2023/07/23 04:21:18;;;;;;;9.90;8.90;;;;;;;-128.00;-1.00;-1.00;105782;1252;1045914;-71
2023/07/23 04:23:45;;;;;;;;;;;;;;;-128.00;-1.00;-1.00;105843;1252;1047703;-72
2023/07/23 04:26:12;;;;;;;8.70;7.90;;;;;;;-128.00;-1.00;-1.00;105869;1252;1004620;-72
2023/07/23 04:28:38;;;;;;;8.90;8.20;;;;;;;-128.00;-1.00;-1.00;105819;1253;1004458;-72
2023/07/23 04:31:04;;;;;;;8.60;7.80;;;;;;;-128.00;-1.00;-1.00;105827;1252;1004818;-72
2023/07/23 04:33:31;;;;;;;9.40;8.00;;;;;;;-128.00;-1.00;-1.00;105571;1252;1004603;-72
2023/07/23 04:35:57;;;;;;;10.00;9.00;;;;;;;-128.00;-1.00;-1.00;105779;1252;1004204;-72
2023/07/23 04:38:25;;;;;;;8.40;7.60;;;;;;;-128.00;-1.00;-1.00;105520;1253;1003686;-72
2023/07/23 04:40:51;;;;;;;7.70;7.10;;;;;;;-128.00;-1.00;-1.00;105775;1253;1005163;-72
2023/07/23 04:43:18;;;;;;;7.90;7.30;;;;;;;-128.00;-1.00;-1.00;105798;1252;1004588;-72
2023/07/23 04:45:44;;;;;;;8.40;7.60;;;;;;;-128.00;-1.00;-1.00;105761;1252;1004376;-72
2023/07/23 04:48:12;;;;;;;8.20;7.40;;;;;;;-128.00;-1.00;-1.00;105690;1252;1004237;-72
2023/07/23 04:50:38;;;;;;;7.70;6.90;;;;;;;-128.00;-1.00;-1.00;105817;1252;1005132;-72
2023/07/23 04:53:05;;;;;;;7.70;7.10;;;;;;;-128.00;-1.00;-1.00;105845;1252;1003894;-72
2023/07/23 04:55:32;;;;;;;8.00;6.40;;;;;;;-128.00;-1.00;-1.00;105814;1253;1004557;-72
2023/07/23 04:57:59;;;;;;;7.40;6.20;;;;;;;-128.00;-1.00;-1.00;105824;1252;1004392;-72
2023/07/23 05:00:26;;;;;;;9.10;6.60;;;;;;;-128.00;-1.00;-1.00;105799;1252;1003393;-72
2023/07/23 05:02:52;;;;;;;7.10;6.50;;;;;;;-128.00;-1.00;-1.00;105653;1253;1003601;-72
2023/07/23 05:05:19;;;;;;;6.80;6.30;;;;;;;-128.00;-1.00;-1.00;105821;1252;1004926;-72
2023/07/23 05:07:45;;;;;;;7.80;7.10;;;;;;;-128.00;-1.00;-1.00;105818;1252;1004861;-72
2023/07/23 05:10:12;;;;;;;7.70;7.00;;;;;;;-128.00;-1.00;-1.00;105810;1253;1003705;-73
2023/07/23 05:12:41;;;;;;;7.50;6.80;;;;;;;-128.00;-1.00;-1.00;105805;1254;1004916;-72
2023/07/23 05:15:13;;;;;;;7.30;6.80;;;;;;;-128.00;-1.00;-1.00;105520;1252;1061159;-72
2023/07/23 05:17:40;;;;;;;8.00;7.30;;;;;;;-128.00;-1.00;-1.00;105804;1253;1054776;-72
2023/07/23 05:20:08;;;;;;;9.30;6.50;;;;;;;-128.00;-1.00;-1.00;105634;1252;1004173;-71
2023/07/23 05:22:37;;;;;;;7.50;6.80;;;;;;;-128.00;-1.00;-1.00;105735;1253;1004748;-72
2023/07/23 05:25:04;;;;;;;9.00;7.60;;;;;;;-128.00;-1.00;-1.00;105813;1253;1047700;-71
2023/07/23 05:27:31;;;;;;;7.60;6.90;;;;;;;-128.00;-1.00;-1.00;105832;1252;1004757;-72
2023/07/23 05:29:58;;;;;;;7.60;6.90;;;;;;;-128.00;-1.00;-1.00;105806;1252;1003736;-72
2023/07/23 05:32:24;;;;;;;7.60;6.80;;;;;;;-128.00;-1.00;-1.00;105714;1252;1005566;-72
2023/07/23 05:34:51;;;;;;;8.20;7.00;;;;;;;-128.00;-1.00;-1.00;105575;1252;1005067;-72
2023/07/23 05:37:17;;;;;;;9.30;7.30;;;;;;;-128.00;-1.00;-1.00;105796;1252;1004476;-72
2023/07/23 05:39:44;;;;;;;8.10;7.00;;;;;;;-128.00;-1.00;-1.00;105827;1252;1003690;-72
2023/07/23 05:42:11;;;;;;;8.40;6.60;;;;;;;-128.00;-1.00;-1.00;105802;1252;1003410;-72
2023/07/23 05:44:37;;;;;;;7.70;7.00;;;;;;;-128.00;-1.00;-1.00;105772;1252;1005040;-71
2023/07/23 05:47:04;;;;;;;7.60;6.90;;;;;;;-128.00;-1.00;-1.00;105818;1252;1005125;-71
2023/07/23 05:49:30;;;;;;;7.80;7.10;;;;;;;-128.00;-1.00;-1.00;105895;1253;1003927;-72
2023/07/23 05:52:00;;;;;;;7.60;6.80;;;;;;;-128.00;-1.00;-1.00;105828;1252;1004076;-72
2023/07/23 05:54:27;;;;;;;7.70;6.60;;;;;;;-128.00;-1.00;-1.00;105785;1253;1055306;-72
2023/07/23 05:56:54;;;;;;;8.00;6.60;;;;;;;-128.00;-1.00;-1.00;105799;1253;1004701;-72
2023/07/23 05:59:20;;;;;;;7.20;6.50;;;;;;;-128.00;-1.00;-1.00;105814;1253;1003875;-72
2023/07/23 06:01:46;;;;;;;7.90;7.00;;;;;;;-128.00;-1.00;-1.00;105871;1252;1004033;-72
2023/07/23 06:04:13;;;;;;;8.10;7.10;;;;;;;-128.00;-1.00;-1.00;105802;1252;1003734;-72
2023/07/23 06:06:40;;;;;;;7.30;6.50;;;;;;;-128.00;-1.00;-1.00;105819;1252;1004940;-72
2023/07/23 06:09:06;;;;;;;8.10;7.10;;;;;;;-128.00;-1.00;-1.00;105789;1253;1004118;-72
2023/07/23 06:11:33;;;;;;;7.00;6.30;;;;;;;-128.00;-1.00;-1.00;105776;1256;1004151;-72
2023/07/23 06:14:00;;;;;;;7.70;6.90;;;;;;;-128.00;-1.00;-1.00;105790;1253;1003523;-72
2023/07/23 06:16:26;;;;;;;7.80;7.00;;;;;;;-128.00;-1.00;-1.00;105795;1252;1004994;-72
2023/07/23 06:18:52;;;;;;;7.00;6.40;;;;;;;-128.00;-1.00;-1.00;105809;1252;1004660;-72
2023/07/23 06:21:19;;;;;;;9.60;6.90;;;;;;;-128.00;-1.00;-1.00;105751;1252;1004125;-72
2023/07/23 06:23:45;;;;;;;6.90;6.30;;;;;;;-128.00;-1.00;-1.00;105836;1253;1004724;-72
2023/07/23 06:26:13;;;;;;;8.40;6.60;;;;;;;-128.00;-1.00;-1.00;105582;1253;1005000;-71
2023/07/23 06:28:40;;;;;;;7.60;6.10;;;;;;;-128.00;-1.00;-1.00;105802;1253;1003730;-71
2023/07/23 06:31:06;;;;;;;7.30;6.60;;;;;;;-128.00;-1.00;-1.00;105800;1253;1004455;-72
2023/07/23 06:33:33;;;;;;;8.00;6.40;;;;;;;-128.00;-1.00;-1.00;105818;1253;1005532;-74
2023/07/23 06:36:01;;;;;;;9.30;5.80;;;;;;;-128.00;-1.00;-1.00;105469;1253;1004849;-73
2023/07/23 06:38:27;;;;;;;6.80;6.20;;;;;;;-128.00;-1.00;-1.00;105777;1252;1003790;-72
2023/07/23 06:40:55;;;;;;;7.00;6.40;;;;;;;-128.00;-1.00;-1.00;105770;1253;1004544;-72
2023/07/23 06:43:23;;;;;;;7.80;6.90;;;;;;;-128.00;-1.00;-1.00;105859;1252;1005245;-72
2023/07/23 06:45:51;;;;;;;7.40;6.70;;;;;;;-128.00;-1.00;-1.00;105798;1253;1004211;-74
2023/07/23 06:48:19;;;;;;;6.60;6.00;;;;;;;-128.00;-1.00;-1.00;105762;1253;1004887;-72
2023/07/23 06:50:46;;;;;;;7.90;7.20;;;;;;;-128.00;-1.00;-1.00;105820;1253;1004603;-71
2023/07/23 06:53:14;;;;;;;7.00;5.90;;;;;;;-128.00;-1.00;-1.00;105520;1253;1004825;-72
2023/07/23 06:55:59;;;;;;;6.70;6.00;;;;;;;-128.00;-1.00;-1.00;105826;1252;1005830;-72
2023/07/23 06:58:27;;;;;;;7.30;6.70;;;;;;;-128.00;-1.00;-1.00;105796;1253;1059074;-72
2023/07/23 07:00:54;;;;;;;8.40;7.40;;;;;;;-128.00;-1.00;-1.00;105793;1252;1045659;-72
2023/07/23 07:03:21;;;;;;;9.40;7.30;;;;;;;-128.00;-1.00;-1.00;105810;1252;1004806;-72
2023/07/23 07:05:47;;;;;;;7.60;6.90;;;;;;;-128.00;-1.00;-1.00;105833;1253;1004315;-72
2023/07/23 07:08:14;;;;;;;8.80;7.80;;;;;;;-128.00;-1.00;-1.00;105808;1252;1004524;-71
2023/07/23 07:10:40;;;;;;;8.90;8.00;;;;;;;-128.00;-1.00;-1.00;105791;1252;1003844;-72
2023/07/23 07:13:07;;;;;;;7.40;6.70;;;;;;;-128.00;-1.00;-1.00;105807;1253;1004629;-72
2023/07/23 07:15:33;;;;;;;6.40;5.90;;;;;;;-128.00;-1.00;-1.00;105802;1253;1003991;-72
2023/07/23 07:18:00;;;;;;;5.40;4.80;;;;;;;-128.00;-1.00;-1.00;105813;1252;1004295;-72
2023/07/23 07:20:27;;;;;;;6.40;5.70;;;;;;;-128.00;-1.00;-1.00;105877;1253;1004589;-72
2023/07/23 07:22:53;;;;;;;6.20;5.60;;;;;;;-128.00;-1.00;-1.00;105830;1253;1004398;-72
2023/07/23 07:25:19;;;;;;;6.30;5.70;;;;;;;-128.00;-1.00;-1.00;105827;1252;1003415;-73
2023/07/23 07:27:46;;;;;;;7.70;6.90;;;;;;;-128.00;-1.00;-1.00;105817;1253;1004807;-72
2023/07/23 07:30:13;;;;;;;6.30;5.50;;;;;;;-128.00;-1.00;-1.00;105785;1253;1004327;-72
2023/07/23 07:32:39;;;;;;;5.30;4.80;;;;;;;-128.00;-1.00;-1.00;105823;1252;1004544;-71
2023/07/23 07:35:06;;;;;;;5.30;4.70;;;;;;;-128.00;-1.00;-1.00;105763;1253;1004460;-72
2023/07/23 07:37:33;;;;;;;6.70;4.90;;;;;;;-128.00;-1.00;-1.00;105822;1252;1004690;-72
2023/07/23 07:39:59;;;;;;;5.90;5.20;;;;;;;-128.00;-1.00;-1.00;105795;1252;1004709;-71
2023/07/23 07:42:26;;;;;;;5.50;5.10;;;;;;;-128.00;-1.00;-1.00;105782;1254;1004007;-73
2023/07/23 07:44:53;;;;;;;5.40;4.90;;;;;;;-128.00;-1.00;-1.00;105817;1254;1003250;-72
2023/07/23 07:47:19;;;;;;;5.50;5.00;;;;;;;-128.00;-1.00;-1.00;105793;1252;1004274;-72
2023/07/23 07:49:45;;;;;;;6.00;5.40;;;;;;;-128.00;-1.00;-1.00;105768;1253;1004696;-73
2023/07/23 07:52:12;;;;;;;5.50;4.80;;;;;;;-128.00;-1.00;-1.00;105794;1252;1003881;-72
2023/07/23 07:54:38;;;;;;;4.70;4.20;;;;;;;-128.00;-1.00;-1.00;105835;1253;1004462;-72
2023/07/23 07:57:05;;;;;;;3.70;3.40;;;;;;;-128.00;-1.00;-1.00;105817;1253;1004400;-72
2023/07/23 07:59:32;;;;;;;4.00;3.70;;;;;;;-128.00;-1.00;-1.00;105791;1252;1004092;-71
2023/07/23 08:01:59;;;;;;;3.40;3.10;;;;;;;-128.00;-1.00;-1.00;105810;1253;1003991;-76
2023/07/23 08:04:27;;;;;;;3.50;3.20;;;;;;;-128.00;-1.00;-1.00;105822;1252;1003191;-77
2023/07/23 08:06:54;;;;;;;4.00;3.50;;;;;;;-128.00;-1.00;-1.00;105827;1253;1003517;-77
2023/07/23 08:09:23;;;;;;;3.90;3.50;;;;;;;-128.00;-1.00;-1.00;105781;1253;1003856;-76
2023/07/23 08:11:50;;;;;;;3.40;3.10;;;;;;;-128.00;-1.00;-1.00;105735;1253;1058895;-77
2023/07/23 08:14:19;;;;;;;4.00;3.00;;;;;;;-128.00;-1.00;-1.00;105758;1252;1004487;-77
2023/07/23 08:16:48;;;;;;;4.60;3.20;;;;;;;-128.00;-1.00;-1.00;105744;1254;1046628;-76
2023/07/23 08:19:14;;;;;;;3.40;3.10;;;;;;;-128.00;-1.00;-1.00;105782;1253;1061496;-77
2023/07/23 08:21:42;;;;;;;3.70;3.40;;;;;;;-128.00;-1.00;-1.00;105836;1253;1004693;-76
2023/07/23 08:24:09;;;;;;;3.20;3.00;;;;;;;-128.00;-1.00;-1.00;105764;1253;1003591;-76
2023/07/23 08:26:39;;;;;;;3.30;2.70;;;;;;;-128.00;-1.00;-1.00;105736;1253;1005283;-77
2023/07/23 08:29:09;;;;;;;2.70;2.50;;;;;;;-128.00;-1.00;-1.00;105833;1252;1046676;-76
2023/07/23 08:31:36;;;;;;;3.00;2.60;;;;;;;-128.00;-1.00;-1.00;105762;1253;1061502;-76
2023/07/23 08:34:03;;;;;;;4.30;2.90;;;;;;;-128.00;-1.00;-1.00;105781;1253;1003687;-76
2023/07/23 08:36:31;;;;;;;4.40;2.60;;;;;;;-128.00;-1.00;-1.00;105777;1252;1004145;-76
2023/07/23 08:38:58;;;;;;;3.10;2.70;;;;;;;-128.00;-1.00;-1.00;105794;1253;1003514;-77
2023/07/23 08:41:27;;;;;;;3.50;2.70;;;;;;;-128.00;-1.00;-1.00;105808;1254;1004089;-77
2023/07/23 08:44:12;;;;;;;;;;;;;;;-128.00;-1.00;-1.00;105787;1253;1060367;-77
2023/07/23 08:46:46;;;;;;;5.90;2.60;;;;;;;-128.00;-1.00;-1.00;105816;1252;1055244;-77
2023/07/23 08:49:17;;;;;;;3.90;2.40;;;;;;;-128.00;-1.00;-1.00;105571;1253;1059968;-77
2023/07/23 08:51:46;;;;;;;2.70;2.30;;;;;;;-128.00;-1.00;-1.00;105619;1253;1044698;-77
2023/07/23 08:54:15;;;;;;;3.70;2.40;;;;;;;-128.00;-1.00;-1.00;105651;1253;1049318;-77
2023/07/23 08:56:43;;;;;;;2.60;2.40;;;;;;;-128.00;-1.00;-1.00;105773;1253;1061589;-77
2023/07/23 08:59:09;;;;;;;3.70;2.30;;;;;;;-128.00;-1.00;-1.00;105767;1254;1003738;-77
2023/07/23 09:01:38;;;;;;;2.30;2.00;;;;;;;-128.00;-1.00;-1.00;105795;1252;1004209;-76
2023/07/23 09:04:11;;;;;;;3.00;2.50;;;;;;;-128.00;-1.00;-1.00;105773;1254;1043714;-76
2023/07/23 09:06:41;;;;;;;3.10;2.80;;;;;;;-128.00;-1.00;-1.00;105827;1253;1047800;-76
2023/07/23 09:09:10;;;;;;;5.10;2.30;;;;;;;-128.00;-1.00;-1.00;105562;1253;1062225;-76
2023/07/23 09:11:37;;;;;;;4.50;2.30;;;;;;;-128.00;-1.00;-1.00;105808;1252;1056207;-76
2023/07/23 09:14:08;;;;;;;3.10;2.20;;;;;;;-128.00;-1.00;-1.00;105648;1253;1004323;-76
2023/07/23 09:16:37;;;;;;;3.70;2.50;;;;;;;-128.00;-1.00;-1.00;105751;1253;1045157;-77
2023/07/23 09:19:04;;;;;;;2.80;2.20;;;;;;;-128.00;-1.00;-1.00;105502;1254;1047926;-76
2023/07/23 09:21:31;;;;;;;2.50;2.20;;;;;;;-128.00;-1.00;-1.00;105784;1253;1004866;-76
2023/07/23 09:23:58;;;;;;;2.10;2.00;;;;;;;-128.00;-1.00;-1.00;105783;1253;1004008;-76
2023/07/23 09:26:27;;;;;;;2.90;2.60;;;;;;;-128.00;-1.00;-1.00;105743;1254;1003812;-76
2023/07/23 09:28:56;;;;;;;2.90;2.70;;;;;;;-128.00;-1.00;-1.00;105776;1254;1045213;-77
2023/07/23 09:31:26;;;;;;;;;;;;;;;-128.00;-1.00;-1.00;105761;1253;1046765;-76
2023/07/23 09:33:58;;;;;;;5.00;3.00;;;;;;;-128.00;-1.00;-1.00;105820;1254;1062051;-77
2023/07/23 09:36:26;;;;;;;2.80;2.30;;;;;;;-128.00;-1.00;-1.00;105760;1256;1055345;-76
2023/07/23 09:38:56;;;;;;;2.90;2.60;;;;;;;-128.00;-1.00;-1.00;105793;1254;1004231;-75
2023/07/23 09:41:29;;;;;;;2.90;2.70;;;;;;;-128.00;-1.00;-1.00;105795;1254;1044445;-76
2023/07/23 09:44:06;;;;;;;2.60;2.40;;;;;;;-128.00;-1.00;-1.00;105772;1254;1046907;-76
2023/07/23 09:46:33;;;;;;;2.70;2.50;;;;;;;-128.00;-1.00;-1.00;105799;1256;1061662;-76
2023/07/23 09:49:00;;;;;;;2.80;2.50;;;;;;;-128.00;-1.00;-1.00;105785;1254;1004678;-75
2023/07/23 09:51:27;;;;;;;3.40;2.50;;;;;;;-128.00;-1.00;-1.00;105769;1254;1004089;-76
2023/07/23 09:53:54;;;;;;;2.70;2.50;;;;;;;-128.00;-1.00;-1.00;105763;1254;1004014;-77
2023/07/23 09:56:22;;;;;;;2.60;2.40;;;;;;;-128.00;-1.00;-1.00;105846;1253;1003820;-76
2023/07/23 09:58:53;;;;;;;2.80;2.40;;;;;;;-128.00;-1.00;-1.00;105669;1254;1061398;-76
2023/07/23 10:01:20;;;;;;;4.90;2.60;;;;;;;-128.00;-1.00;-1.00;105833;1253;1055949;-76
2023/07/23 10:03:48;;;;;;;3.90;2.60;;;;;;;-128.00;-1.00;-1.00;105706;1254;1004050;-77
2023/07/23 10:06:20;;;;;;;2.50;2.40;;;;;;;-128.00;-1.00;-1.00;105803;1253;1004301;-75
2023/07/23 10:08:48;;;;;;;2.60;2.40;;;;;;;-128.00;-1.00;-1.00;105650;1254;1047529;-76
2023/07/23 10:11:17;;;;;;;3.30;2.40;;;;;;;-128.00;-1.00;-1.00;105607;1253;1004103;-77
2023/07/23 10:13:44;;;;;;;2.30;2.10;;;;;;;-128.00;-1.00;-1.00;105788;1252;1056064;-76
2023/07/23 10:16:24;;;;;;;3.20;2.50;;;;;;;-128.00;-1.00;-1.00;105785;1254;1004558;-76
2023/07/23 10:18:53;;;;;;;2.80;2.60;;;;;;;-128.00;-1.00;-1.00;105773;1253;1044820;-76
2023/07/23 10:21:20;;;;;;;3.50;2.40;;;;;;;-128.00;-1.00;-1.00;105817;1253;1047789;-76
2023/07/23 10:23:58;;;;;;;2.70;1.90;;;;;;;-128.00;-1.00;-1.00;105826;1254;1004236;-76
2023/07/23 10:26:29;;;;;;;2.60;2.40;;;;;;;-128.00;-1.00;-1.00;105788;1253;1055527;-77
2023/07/23 10:28:58;;;;;;;4.60;2.40;;;;;;;-128.00;-1.00;-1.00;105771;1254;1059700;-77
2023/07/23 10:31:27;;;;;;;4.90;2.50;;;;;;;-128.00;-1.00;-1.00;105800;1252;1043513;-76
2023/07/23 10:33:55;;;;;;;3.30;2.30;;;;;;;-128.00;-1.00;-1.00;105544;1253;1047342;-76
2023/07/23 10:36:22;;;;;;;2.60;2.40;;;;;;;-128.00;-1.00;-1.00;105822;1254;1004358;-77
2023/07/23 10:39:04;;;;;;;3.00;2.70;;;;;;;-128.00;-1.00;-1.00;105596;1254;1003966;-75
2023/07/23 10:41:48;;;;;;;2.50;2.30;;;;;;;-128.00;-1.00;-1.00;105743;1254;1060457;-76
2023/07/23 10:44:22;;;;;;;4.70;2.80;;;;;;;-128.00;-1.00;-1.00;105789;1254;1044746;-76
2023/07/23 10:46:49;;;;;;;4.20;2.60;;;;;;;-128.00;-1.00;-1.00;105682;1254;1047293;-76
2023/07/23 10:49:21;;;;;;;5.60;2.70;;;;;;;-128.00;-1.00;-1.00;105814;1254;1004947;-77
2023/07/23 10:51:50;;;;;;;3.00;2.50;;;;;;;-128.00;-1.00;-1.00;105790;1253;1055678;-76
2023/07/23 10:54:18;;;;;;;6.80;3.00;;;;;;;-128.00;-1.00;-1.00;105675;1253;1058080;-74
2023/07/23 10:56:47;;;;;;;3.60;2.60;;;;;;;-128.00;-1.00;-1.00;105550;1253;1005605;-75
2023/07/23 10:59:15;;;;;;;3.00;2.80;;;;;;;-128.00;-1.00;-1.00;105805;1252;1047434;-75
2023/07/23 11:01:43;;;;;;;3.10;2.80;;;;;;;-128.00;-1.00;-1.00;105812;1253;1004536;-75
2023/07/23 11:04:23;;;;;;;4.30;3.10;;;;;;;-128.00;-1.00;-1.00;105795;1254;1055165;-75
2023/07/23 11:07:00;;;;;;;4.10;3.10;;;;;;;-128.00;-1.00;-1.00;105834;1253;1059422;-74
2023/07/23 11:09:30;;;;;;;3.10;2.80;;;;;;;-128.00;-1.00;-1.00;105741;1254;1044659;-74
2023/07/23 11:11:58;;;;;;;4.40;3.00;;;;;;;-128.00;-1.00;-1.00;105806;1253;1045894;-74
2023/07/23 11:14:27;;;;;;;3.10;2.90;;;;;;;-128.00;-1.00;-1.00;105817;1254;1003827;-75